Time;durP1;ratioP1;P1;durP2;ratioP2;P2;SDS_P1;SDS_P2;PMS_P1;PMS_P2;Temp;Humidity;BMP_temperature;BMP_pressure;BME280_temperature;BME280_humidity;BME280_pressure;Samples;Min_cycle;Max_cycle;Signal;HPM_P1;HPM_P2
2022/10/01 00:01:12;;;;;;;4.65;2.42;;;10.90;99.90;;;;;;5086404;28;20059;-45
2022/10/01 00:03:39;;;;;;;5.53;2.75;;;11.00;99.90;;;;;;5076122;28;20049;-45
2022/10/01 00:06:08;;;;;;;4.15;2.10;;;10.90;99.90;;;;;;5086999;28;20072;-45
2022/10/01 00:08:36;;;;;;;5.07;2.15;;;11.00;99.90;;;;;;5064983;28;20112;-45
2022/10/01 00:11:08;;;;;;;4.20;2.80;;;10.90;99.90;;;;;;5074783;28;20064;-45
2022/10/01 00:13:35;;;;;;;3.60;2.45;;;10.90;99.90;;;;;;5064687;28;20044;-46
2022/10/01 00:16:07;;;;;;;6.15;3.38;;;10.90;99.90;;;;;;5087424;28;20040;-45
2022/10/01 00:18:36;;;;;;;10.02;3.88;;;10.90;99.90;;;;;;5069383;28;20091;-45
2022/10/01 00:21:15;;;;;;;6.22;4.07;;;10.90;99.90;;;;;;5078631;28;20492;-45
2022/10/01 00:23:42;;;;;;;12.82;5.90;;;10.90;99.90;;;;;;5071720;28;20036;-45
2022/10/01 00:26:16;;;;;;;10.77;5.97;;;10.90;99.90;;;;;;5080530;28;20068;-45
2022/10/01 00:28:44;;;;;;;9.60;6.55;;;11.00;99.90;;;;;;5079791;28;20071;-44
2022/10/01 00:31:13;;;;;;;9.25;5.95;;;11.00;99.90;;;;;;5070640;28;20537;-45
2022/10/01 00:33:40;;;;;;;8.80;4.40;;;11.00;99.90;;;;;;5078405;28;20047;-45
2022/10/01 00:36:08;;;;;;;8.98;3.50;;;11.00;99.90;;;;;;5079987;28;20090;-45
2022/10/01 00:38:36;;;;;;;5.25;3.40;;;11.00;99.90;;;;;;5073359;28;20508;-46
2022/10/01 00:41:04;;;;;;;6.07;3.33;;;11.10;99.90;;;;;;5082293;28;20432;-45
2022/10/01 00:43:32;;;;;;;;;;;11.00;99.90;;;;;;5082382;28;20066;-45
2022/10/01 00:46:05;;;;;;;;;;;11.10;99.90;;;;;;5080537;28;19974;-45
2022/10/01 00:48:41;;;;;;;7.15;3.95;;;11.00;99.90;;;;;;5091061;28;19965;-45
2022/10/01 00:51:08;;;;;;;7.05;4.10;;;11.00;99.90;;;;;;5085744;28;20068;-46
2022/10/01 00:53:35;;;;;;;12.13;3.88;;;11.00;99.90;;;;;;5083684;28;20044;-46
2022/10/01 00:56:01;;;;;;;5.07;3.42;;;10.90;99.90;;;;;;5084525;28;20127;-44
2022/10/01 00:58:28;;;;;;;6.22;3.78;;;10.90;99.90;;;;;;5085184;28;20039;-45
2022/10/01 01:00:56;;;;;;;8.43;4.15;;;10.90;99.90;;;;;;5086062;28;20775;-45
2022/10/01 01:03:23;;;;;;;7.82;3.80;;;10.80;99.90;;;;;;5069503;28;20049;-45
2022/10/01 01:05:50;;;;;;;5.40;3.55;;;10.80;99.90;;;;;;5090487;28;20071;-45
2022/10/01 01:08:17;;;;;;;5.47;3.13;;;10.80;99.90;;;;;;5083951;28;20119;-45
2022/10/01 01:10:49;;;;;;;;;;;10.70;99.90;;;;;;5084811;28;20072;-45
2022/10/01 01:13:49;;;;;;;9.65;4.95;;;10.60;99.90;;;;;;5076159;28;19971;-45
2022/10/01 01:16:38;;;;;;;6.78;4.10;;;10.60;99.90;;;;;;5084675;28;20079;-47
2022/10/01 01:19:19;;;;;;;8.40;4.88;;;10.60;99.90;;;;;;5085775;28;20044;-45
2022/10/01 01:21:51;;;;;;;8.25;4.90;;;10.60;99.90;;;;;;5078841;28;20128;-45
2022/10/01 01:24:18;;;;;;;5.45;4.05;;;10.70;99.90;;;;;;5086473;28;20127;-45
2022/10/01 01:26:48;;;;;;;7.15;4.68;;;10.70;99.90;;;;;;5086127;28;20439;-45
2022/10/01 01:29:42;;;;;;;7.88;4.75;;;10.70;99.90;;;;;;5056004;28;20072;-46
2022/10/01 01:32:17;;;;;;;8.80;4.82;;;10.70;99.90;;;;;;5086174;28;20071;-46
2022/10/01 01:34:47;;;;;;;12.65;5.30;;;10.70;99.90;;;;;;5081283;28;20087;-46
2022/10/01 01:37:17;;;;;;;8.73;5.07;;;10.70;99.90;;;;;;5082779;28;20075;-46
2022/10/01 01:39:49;;;;;;;8.55;6.15;;;10.80;99.90;;;;;;5090550;28;20078;-46
2022/10/01 01:42:27;;;;;;;11.55;5.75;;;10.80;99.90;;;;;;5080683;28;20501;-45
2022/10/01 01:44:58;;;;;;;10.18;6.05;;;10.80;99.90;;;;;;5062931;28;20045;-46
2022/10/01 01:47:28;;;;;;;10.13;6.15;;;10.80;99.90;;;;;;5071877;28;20090;-45
2022/10/01 01:49:56;;;;;;;10.90;5.75;;;10.80;99.90;;;;;;5072431;28;20485;-46
2022/10/01 01:52:23;;;;;;;10.10;5.65;;;10.80;99.90;;;;;;5078001;28;20036;-46
2022/10/01 01:54:50;;;;;;;7.70;5.60;;;10.90;99.90;;;;;;5087462;28;20083;-46
2022/10/01 01:57:19;;;;;;;8.63;4.82;;;10.80;99.90;;;;;;5093362;28;20169;-47
2022/10/01 01:59:46;;;;;;;7.38;5.05;;;10.90;99.90;;;;;;5084616;28;20142;-45
2022/10/01 02:02:21;;;;;;;5.93;4.40;;;10.80;99.90;;;;;;5079694;28;20125;-46
2022/10/01 02:04:59;;;;;;;7.43;4.88;;;10.80;99.90;;;;;;5084449;28;20128;-46
2022/10/01 02:07:47;;;;;;;12.60;4.57;;;10.80;99.90;;;;;;5090392;22;21047;-47
2022/10/01 02:10:41;;;;;;;7.13;3.72;;;10.80;99.90;;;;;;5109568;28;20071;-47
2022/10/01 02:13:37;;;;;;;6.15;3.83;;;10.80;99.90;;;;;;5113322;28;20488;-47
2022/10/01 02:16:21;;;;;;;7.18;3.67;;;10.80;99.90;;;;;;5111569;28;20046;-47
2022/10/01 02:18:58;;;;;;;5.10;3.47;;;10.70;99.90;;;;;;5101523;28;20040;-47
2022/10/01 02:21:39;;;;;;;6.75;3.25;;;10.80;99.90;;;;;;5093250;28;20067;-47
2022/10/01 02:24:15;;;;;;;7.22;3.90;;;10.70;99.90;;;;;;5092710;28;20072;-47
2022/10/01 02:26:46;;;;;;;6.60;3.42;;;10.70;99.90;;;;;;5098064;28;20044;-49
2022/10/01 02:29:15;;;;;;;9.23;3.83;;;10.70;99.90;;;;;;5100956;28;20044;-47
2022/10/01 02:31:46;;;;;;;8.57;4.03;;;10.70;99.90;;;;;;5093185;28;20678;-47
2022/10/01 02:34:16;;;;;;;6.57;4.47;;;10.70;99.90;;;;;;5092213;28;20067;-50
2022/10/01 02:36:48;;;;;;;7.32;5.57;;;10.70;99.90;;;;;;5091489;28;20071;-48
2022/10/01 02:39:16;;;;;;;10.13;5.53;;;10.70;99.90;;;;;;5091551;28;20071;-47
2022/10/01 02:41:46;;;;;;;10.68;6.40;;;10.70;99.90;;;;;;5096462;28;20048;-48
2022/10/01 02:44:21;;;;;;;9.90;5.88;;;10.70;99.90;;;;;;5101566;28;20079;-47
2022/10/01 02:47:06;;;;;;;10.02;6.53;;;10.70;99.90;;;;;;5112434;28;20055;-47
2022/10/01 02:49:35;;;;;;;10.73;6.40;;;10.70;99.90;;;;;;5089986;28;20988;-48
2022/10/01 02:52:14;;;;;;;8.07;5.75;;;10.70;99.90;;;;;;5108336;28;20036;-47
2022/10/01 02:54:56;;;;;;;7.63;5.05;;;10.70;99.90;;;;;;5111672;28;20079;-48
2022/10/01 02:57:23;;;;;;;5.40;4.40;;;10.70;99.90;;;;;;5100552;28;20408;-47
2022/10/01 02:59:50;;;;;;;6.70;4.50;;;10.60;99.90;;;;;;5106463;28;20672;-47
2022/10/01 03:02:18;;;;;;;7.63;4.10;;;10.70;99.90;;;;;;5112127;28;20082;-50
2022/10/01 03:04:48;;;;;;;7.00;5.05;;;10.60;99.90;;;;;;5105820;28;20040;-48
2022/10/01 03:07:15;;;;;;;8.02;5.65;;;10.60;99.90;;;;;;5094143;28;20040;-47
2022/10/01 03:09:42;;;;;;;6.95;5.13;;;10.60;99.90;;;;;;5091023;28;20071;-47
2022/10/01 03:12:12;;;;;;;7.72;4.07;;;10.60;99.90;;;;;;5109178;28;20537;-47
2022/10/01 03:14:39;;;;;;;6.40;4.28;;;10.60;99.90;;;;;;5112364;28;20043;-48
2022/10/01 03:17:06;;;;;;;5.35;4.22;;;10.60;99.90;;;;;;5110783;28;20071;-48
2022/10/01 03:19:33;;;;;;;4.63;3.70;;;10.70;99.90;;;;;;5102179;28;20070;-47
2022/10/01 03:22:00;;;;;;;6.15;4.30;;;10.70;99.90;;;;;;5090461;28;20076;-48
2022/10/01 03:24:26;;;;;;;6.07;4.45;;;10.70;99.90;;;;;;5090639;28;20522;-49
2022/10/01 03:26:57;;;;;;;8.23;3.95;;;10.70;99.90;;;;;;5091065;28;20067;-47
2022/10/01 03:29:24;;;;;;;6.32;4.43;;;10.70;99.90;;;;;;5098694;28;20074;-47
2022/10/01 03:31:52;;;;;;;7.90;5.63;;;10.70;99.90;;;;;;5106414;28;20063;-47
2022/10/01 03:34:19;;;;;;;15.23;6.38;;;10.70;99.90;;;;;;5111725;28;20088;-48
2022/10/01 03:36:47;;;;;;;;;;;10.70;99.90;;;;;;5102344;28;20047;-46
2022/10/01 03:39:13;;;;;;;9.35;6.28;;;10.70;99.90;;;;;;5100106;28;20380;-47
2022/10/01 03:41:40;;;;;;;9.65;5.95;;;10.70;99.90;;;;;;5091806;28;20083;-48
2022/10/01 03:44:07;;;;;;;10.95;6.18;;;10.70;99.90;;;;;;5091411;28;20512;-47
2022/10/01 03:46:33;;;;;;;7.57;5.15;;;10.70;99.90;;;;;;5099377;28;20063;-47
2022/10/01 03:49:00;;;;;;;10.98;4.25;;;10.70;99.90;;;;;;5111783;28;20389;-47
2022/10/01 03:51:28;;;;;;;7.43;5.15;;;10.70;99.90;;;;;;5110969;28;20043;-47
2022/10/01 03:53:56;;;;;;;7.03;4.10;;;10.70;99.90;;;;;;5111617;28;20043;-47
2022/10/01 03:56:24;;;;;;;6.20;4.72;;;10.70;99.90;;;;;;5104945;28;20070;-47
2022/10/01 03:58:51;;;;;;;5.00;3.88;;;10.70;99.90;;;;;;5111428;28;20563;-47
2022/10/01 04:01:17;;;;;;;7.78;4.35;;;10.80;99.90;;;;;;5111686;28;20074;-47
2022/10/01 04:03:44;;;;;;;8.60;5.18;;;10.70;99.90;;;;;;5107673;28;20169;-47
2022/10/01 04:06:11;;;;;;;10.25;5.45;;;10.80;99.90;;;;;;5108765;28;20070;-47
2022/10/01 04:08:38;;;;;;;12.27;7.93;;;10.70;99.90;;;;;;5095744;28;20062;-47
2022/10/01 04:11:06;;;;;;;16.00;8.07;;;10.70;99.90;;;;;;5095723;28;20110;-49
2022/10/01 04:13:33;;;;;;;;;;;10.70;99.90;;;;;;5099487;28;20115;-47
2022/10/01 04:16:01;;;;;;;10.43;7.38;;;10.70;99.90;;;;;;5099594;28;19923;-47
2022/10/01 04:18:28;;;;;;;9.00;6.97;;;10.70;99.90;;;;;;5111324;28;20062;-47
2022/10/01 04:20:54;;;;;;;11.68;6.45;;;10.70;99.90;;;;;;5111353;28;20654;-47
2022/10/01 04:23:21;;;;;;;10.02;7.10;;;10.60;99.90;;;;;;5115180;28;20078;-48
2022/10/01 04:25:48;;;;;;;11.35;6.53;;;10.70;99.90;;;;;;5107617;28;20527;-47
2022/10/01 04:28:15;;;;;;;10.73;6.95;;;10.70;99.90;;;;;;5095162;28;20071;-47
2022/10/01 04:30:44;;;;;;;9.07;6.32;;;10.70;99.90;;;;;;5099126;28;20439;-47
2022/10/01 04:33:14;;;;;;;11.77;6.72;;;10.70;99.90;;;;;;5079071;28;20110;-49
2022/10/01 04:35:42;;;;;;;13.10;6.20;;;10.70;99.90;;;;;;5113663;28;20122;-47
2022/10/01 04:38:13;;;;;;;10.73;6.40;;;10.70;99.90;;;;;;5114796;28;20043;-48
2022/10/01 04:40:40;;;;;;;9.85;7.00;;;10.70;99.90;;;;;;5111072;28;20047;-46
2022/10/01 04:43:08;;;;;;;12.98;6.78;;;10.60;99.90;;;;;;5115284;28;20135;-47
2022/10/01 04:45:38;;;;;;;10.15;6.80;;;10.60;99.90;;;;;;5112769;28;20676;-48
2022/10/01 04:48:04;;;;;;;15.98;7.07;;;10.60;99.90;;;;;;5098635;28;20453;-47
2022/10/01 04:50:31;;;;;;;11.00;6.93;;;10.50;99.90;;;;;;5094046;28;20048;-48
2022/10/01 04:52:58;;;;;;;9.52;6.97;;;10.50;99.90;;;;;;5094951;28;20071;-47
2022/10/01 04:55:25;;;;;;;9.35;6.50;;;10.50;99.90;;;;;;5104241;28;20075;-48
2022/10/01 04:57:52;;;;;;;10.52;6.55;;;10.50;99.90;;;;;;5114746;28;20075;-49
2022/10/01 05:00:23;;;;;;;11.85;6.43;;;10.50;99.90;;;;;;5112975;28;20725;-48
2022/10/01 05:02:50;;;;;;;8.77;5.90;;;10.60;99.90;;;;;;5109280;28;20496;-47
2022/10/01 05:05:19;;;;;;;7.32;5.53;;;10.60;99.90;;;;;;5113777;28;20093;-47
2022/10/01 05:07:46;;;;;;;6.93;4.97;;;10.60;99.90;;;;;;5100319;28;20072;-48
2022/10/01 05:10:16;;;;;;;8.32;5.38;;;10.60;99.90;;;;;;5111777;28;20046;-47
2022/10/01 05:12:45;;;;;;;9.98;5.63;;;10.50;99.90;;;;;;5114610;28;20108;-48
2022/10/01 05:15:12;;;;;;;12.27;5.80;;;10.90;99.90;;;;;;5107478;28;20051;-47
2022/10/01 05:17:39;;;;;;;12.15;6.13;;;10.50;99.90;;;;;;5089239;28;20071;-47
2022/10/01 05:20:07;;;;;;;7.97;5.65;;;10.50;99.90;;;;;;5114462;28;20063;-47
2022/10/01 05:22:33;;;;;;;14.38;5.82;;;10.50;99.90;;;;;;5113363;28;20507;-47
2022/10/01 05:25:01;;;;;;;8.60;6.05;;;10.50;99.90;;;;;;5105064;28;20051;-47
2022/10/01 05:27:29;;;;;;;9.50;6.53;;;10.50;99.90;;;;;;5111455;28;20044;-47
2022/10/01 05:29:56;;;;;;;13.13;7.65;;;10.50;99.90;;;;;;5095697;28;20085;-48
2022/10/01 05:32:23;;;;;;;9.65;7.32;;;10.60;99.90;;;;;;5092810;28;20036;-48
2022/10/01 05:34:50;;;;;;;11.90;7.75;;;10.60;99.90;;;;;;5099368;28;20047;-51
2022/10/01 05:37:19;;;;;;;13.27;6.90;;;10.60;99.90;;;;;;5099763;28;20067;-47
2022/10/01 05:39:46;;;;;;;9.55;6.60;;;10.60;99.90;;;;;;5097402;28;20048;-47
2022/10/01 05:42:13;;;;;;;9.82;6.95;;;10.60;99.90;;;;;;5112993;28;20074;-49
2022/10/01 05:44:44;;;;;;;9.15;5.07;;;10.60;99.90;;;;;;5104278;28;20089;-47
2022/10/01 05:47:12;;;;;;;10.40;7.28;;;10.60;99.90;;;;;;5113795;28;20059;-47
2022/10/01 05:49:42;;;;;;;13.77;7.88;;;10.60;99.90;;;;;;5113285;28;20047;-47
2022/10/01 05:52:10;;;;;;;13.60;8.20;;;10.70;99.90;;;;;;5111512;28;20035;-47
2022/10/01 05:54:37;;;;;;;12.95;7.88;;;10.70;99.90;;;;;;5100603;28;20035;-47
2022/10/01 05:57:05;;;;;;;10.90;7.28;;;10.80;99.90;;;;;;5110162;28;20089;-47
2022/10/01 05:59:31;;;;;;;;;;;10.80;99.90;;;;;;5100421;28;20063;-47
2022/10/01 06:01:58;;;;;;;13.15;8.38;;;10.90;99.90;;;;;;5095580;28;19985;-48
2022/10/01 06:04:25;;;;;;;14.57;8.10;;;10.90;99.90;;;;;;5111808;28;20066;-47
2022/10/01 06:06:52;;;;;;;14.02;7.50;;;10.90;99.90;;;;;;5113357;28;20135;-47
2022/10/01 06:09:19;;;;;;;10.75;7.47;;;11.00;99.90;;;;;;5112458;28;20044;-47
2022/10/01 06:11:47;;;;;;;11.95;7.15;;;11.00;99.90;;;;;;5083665;28;20063;-49
2022/10/01 06:14:15;;;;;;;13.40;7.15;;;11.00;99.90;;;;;;5090622;28;20558;-48
2022/10/01 06:16:42;;;;;;;11.65;7.38;;;11.10;99.90;;;;;;5098097;28;20047;-50
2022/10/01 06:19:08;;;;;;;11.55;7.43;;;11.10;99.90;;;;;;5112897;28;20050;-48
2022/10/01 06:21:35;;;;;;;14.95;8.55;;;11.20;99.90;;;;;;5112392;28;20048;-49
2022/10/01 06:24:02;;;;;;;;;;;11.20;99.90;;;;;;5100957;28;20055;-47
2022/10/01 06:26:30;;;;;;;11.52;6.55;;;11.20;99.90;;;;;;5093168;28;20381;-47
2022/10/01 06:28:56;;;;;;;8.93;5.35;;;11.30;99.90;;;;;;5093323;28;20427;-49
2022/10/01 06:31:23;;;;;;;8.07;5.35;;;11.30;99.90;;;;;;5093117;28;20043;-47
2022/10/01 06:33:50;;;;;;;7.22;4.57;;;11.30;99.90;;;;;;5100801;28;20408;-50
2022/10/01 06:36:17;;;;;;;9.35;5.60;;;11.30;99.90;;;;;;5100824;28;20043;-48
2022/10/01 06:38:47;;;;;;;23.80;7.97;;;11.40;99.90;;;;;;5112755;28;20052;-48
2022/10/01 06:41:14;;;;;;;10.05;6.10;;;11.50;99.90;;;;;;5112522;28;20051;-50
2022/10/01 06:43:40;;;;;;;11.63;7.47;;;11.60;99.90;;;;;;5112696;28;20048;-47
2022/10/01 06:46:07;;;;;;;11.88;7.32;;;11.70;99.90;;;;;;5100244;28;20079;-50
2022/10/01 06:48:35;;;;;;;12.23;6.93;;;11.80;99.90;;;;;;5092678;28;20032;-47
2022/10/01 06:51:03;;;;;;;13.13;7.28;;;11.90;99.90;;;;;;5092396;28;20146;-47
2022/10/01 06:53:29;;;;;;;;;;;12.00;99.90;;;;;;5099473;28;20071;-47
2022/10/01 06:56:01;;;;;;;8.65;4.90;;;11.90;99.90;;;;;;5104238;28;20018;-48
2022/10/01 06:58:28;;;;;;;8.70;4.88;;;12.00;99.90;;;;;;5112874;28;20065;-47
2022/10/01 07:01:00;;;;;;;11.70;5.15;;;11.90;99.90;;;;;;5106413;28;20074;-47
2022/10/01 07:03:27;;;;;;;8.82;5.78;;;12.00;99.90;;;;;;5112470;28;20059;-48
2022/10/01 07:05:59;;;;;;;;;;;12.10;99.90;;;;;;5109131;28;20066;-47
2022/10/01 07:08:25;;;;;;;8.60;6.03;;;12.00;99.90;;;;;;5111204;28;20014;-47
2022/10/01 07:10:57;;;;;;;10.10;6.60;;;12.10;99.90;;;;;;5111582;28;20071;-49
2022/10/01 07:13:24;;;;;;;9.57;6.57;;;12.10;99.90;;;;;;5107845;28;20059;-47
2022/10/01 07:15:51;;;;;;;9.02;6.57;;;12.10;99.90;;;;;;5112213;28;20174;-48
2022/10/01 07:18:17;;;;;;;10.80;6.45;;;12.10;99.90;;;;;;5111730;28;20075;-47
2022/10/01 07:20:44;;;;;;;8.13;6.10;;;12.10;99.90;;;;;;5106716;28;20075;-48
2022/10/01 07:23:12;;;;;;;10.32;6.40;;;12.10;99.90;;;;;;5109445;28;20131;-48
2022/10/01 07:25:40;;;;;;;10.75;6.07;;;12.10;99.90;;;;;;5111722;28;20442;-47
2022/10/01 07:28:14;;;;;;;9.65;6.13;;;12.10;99.90;;;;;;5103757;28;20036;-50
2022/10/01 07:30:46;;;;;;;10.13;5.80;;;12.20;99.90;;;;;;5112137;28;20055;-47
2022/10/01 07:33:17;;;;;;;9.57;6.18;;;12.30;99.90;;;;;;5112294;28;20043;-47
2022/10/01 07:35:46;;;;;;;6.93;4.85;;;12.40;99.90;;;;;;5111703;28;20043;-47
2022/10/01 07:38:13;;;;;;;12.90;5.60;;;12.40;99.90;;;;;;5103334;28;20377;-47
2022/10/01 07:40:40;;;;;;;7.95;5.03;;;12.50;99.90;;;;;;5111689;28;20119;-47
2022/10/01 07:43:07;;;;;;;;;;;12.50;99.90;;;;;;5112352;28;20071;-48
2022/10/01 07:45:34;;;;;;;8.73;5.25;;;12.70;99.90;;;;;;5097115;28;19962;-49
2022/10/01 07:48:02;;;;;;;7.22;5.50;;;12.60;99.90;;;;;;5091085;28;20130;-48
2022/10/01 07:50:29;;;;;;;8.98;5.78;;;12.60;99.90;;;;;;5091005;28;20040;-50
2022/10/01 07:52:57;;;;;;;8.45;6.00;;;12.60;99.90;;;;;;5091258;28;20068;-47
2022/10/01 07:55:25;;;;;;;7.90;5.65;;;12.50;99.90;;;;;;5099496;28;20068;-47
2022/10/01 07:57:54;;;;;;;9.80;5.97;;;12.60;99.90;;;;;;5091588;28;20044;-47
2022/10/01 08:00:22;;;;;;;7.78;4.70;;;12.70;99.90;;;;;;5093515;28;20070;-47
2022/10/01 08:02:52;;;;;;;10.75;5.30;;;12.90;99.90;;;;;;5097072;28;20036;-49
2022/10/01 08:05:20;;;;;;;12.77;5.35;;;13.00;99.90;;;;;;5090622;28;20048;-47
2022/10/01 08:07:48;;;;;;;7.50;5.55;;;13.00;99.90;;;;;;5102697;22;20051;-47
2022/10/01 08:10:17;;;;;;;7.75;4.90;;;13.10;99.90;;;;;;5049048;28;20509;-47
2022/10/01 08:12:45;;;;;;;8.82;5.68;;;13.20;99.90;;;;;;5049385;28;20525;-46
2022/10/01 08:15:13;;;;;;;;;;;13.20;99.90;;;;;;5045904;28;20456;-48
2022/10/01 08:17:40;;;;;;;8.43;5.82;;;13.40;99.90;;;;;;5050409;28;20453;-48
2022/10/01 08:20:09;;;;;;;12.15;5.95;;;13.30;99.90;;;;;;5050838;28;20044;-46
2022/10/01 08:22:36;;;;;;;9.57;5.70;;;13.40;99.90;;;;;;5051122;28;20041;-46
2022/10/01 08:25:08;;;;;;;8.82;6.03;;;13.40;99.90;;;;;;5047684;28;20448;-46
2022/10/01 08:27:35;;;;;;;8.27;6.32;;;13.40;99.90;;;;;;5050817;28;20065;-46
2022/10/01 08:30:02;;;;;;;8.68;5.75;;;13.40;99.90;;;;;;5050906;28;20076;-47
2022/10/01 08:32:30;;;;;;;9.30;6.65;;;13.40;99.90;;;;;;5051029;28;20041;-46
2022/10/01 08:34:58;;;;;;;11.43;6.35;;;13.40;99.90;;;;;;5049420;28;20071;-46
2022/10/01 08:37:26;;;;;;;10.52;6.85;;;13.40;99.90;;;;;;5050680;28;20041;-47
2022/10/01 08:39:54;;;;;;;8.30;5.75;;;13.30;99.90;;;;;;5049943;28;20065;-47
2022/10/01 08:42:49;;;;;;;11.50;6.88;;;13.30;99.90;;;;;;5050467;28;20218;-46
2022/10/01 08:45:24;;;;;;;9.70;6.50;;;13.40;99.90;;;;;;5047246;28;20124;-48
2022/10/01 08:48:08;;;;;;;8.70;6.55;;;13.40;99.90;;;;;;5049938;28;20072;-47
2022/10/01 08:50:46;;;;;;;9.85;6.70;;;13.50;99.90;;;;;;5047742;28;20041;-47
2022/10/01 08:53:23;;;;;;;9.57;6.75;;;13.50;99.90;;;;;;5050256;28;20497;-46
2022/10/01 08:55:53;;;;;;;9.07;6.33;;;13.70;99.90;;;;;;5049354;28;20041;-48
2022/10/01 08:58:25;;;;;;;11.65;6.85;;;13.80;99.90;;;;;;5050412;28;20064;-48
2022/10/01 09:00:53;;;;;;;8.70;6.68;;;13.80;99.90;;;;;;5049584;28;20045;-47
2022/10/01 09:03:20;;;;;;;8.50;6.05;;;14.10;99.90;;;;;;5050469;28;20493;-46
2022/10/01 09:06:08;;;;;;;7.03;5.80;;;14.20;99.90;;;;;;5050132;28;20073;-48
2022/10/01 09:08:44;;;;;;;13.30;6.28;;;14.40;99.90;;;;;;5051332;28;20044;-45
2022/10/01 09:11:43;;;;;;;10.30;6.60;;;14.60;99.90;;;;;;5054345;28;20072;-47
2022/10/01 09:14:25;;;;;;;9.07;5.97;;;14.70;99.90;;;;;;5048574;28;20094;-46
2022/10/01 09:17:10;;;;;;;14.02;6.55;;;14.50;99.90;;;;;;5053006;28;20044;-47
2022/10/01 09:20:08;;;;;;;8.65;6.22;;;14.70;99.90;;;;;;5053015;28;20073;-47
2022/10/01 09:23:01;;;;;;;13.25;5.53;;;14.90;99.90;;;;;;5041773;28;20565;-46
2022/10/01 09:25:28;;;;;;;10.02;5.78;;;14.90;99.90;;;;;;5049453;28;20513;-45
2022/10/01 09:28:19;;;;;;;8.95;6.50;;;14.90;99.90;;;;;;5053633;28;20045;-49
2022/10/01 09:31:02;;;;;;;6.88;5.50;;;14.90;99.90;;;;;;5053652;28;20525;-44
2022/10/01 09:33:36;;;;;;;11.25;6.25;;;14.80;99.90;;;;;;5053136;28;20063;-44
2022/10/01 09:36:33;;;;;;;10.32;6.07;;;14.70;99.90;;;;;;5052553;28;20045;-47
2022/10/01 09:39:09;;;;;;;8.18;5.93;;;14.80;99.90;;;;;;5053796;28;20049;-45
2022/10/01 09:41:36;;;;;;;11.55;5.88;;;14.80;99.90;;;;;;5053571;28;20063;-47
2022/10/01 09:44:04;;;;;;;7.50;5.55;;;15.00;99.90;;;;;;5052238;28;20045;-45
2022/10/01 09:46:30;;;;;;;10.35;5.40;;;15.00;99.90;;;;;;5053344;28;20052;-44
2022/10/01 09:49:13;;;;;;;6.53;5.50;;;15.10;99.90;;;;;;5053571;28;20488;-48
2022/10/01 09:51:44;;;;;;;11.20;5.20;;;15.10;99.90;;;;;;5052237;28;20049;-44
2022/10/01 09:54:17;;;;;;;8.68;5.28;;;15.10;99.90;;;;;;5050219;28;20064;-45
2022/10/01 09:56:49;;;;;;;7.03;5.07;;;15.10;99.90;;;;;;5053192;28;20040;-46
2022/10/01 09:59:25;;;;;;;11.43;5.43;;;15.10;99.90;;;;;;5053459;28;20049;-46
2022/10/01 10:01:57;;;;;;;7.80;5.00;;;15.10;99.90;;;;;;5047510;28;20052;-48
2022/10/01 10:04:25;;;;;;;8.18;5.05;;;15.20;99.90;;;;;;5052130;28;20040;-50
2022/10/01 10:07:00;;;;;;;8.43;4.80;;;15.20;99.90;;;;;;5051089;28;20413;-47
2022/10/01 10:09:32;;;;;;;6.53;4.78;;;15.20;99.90;;;;;;5052350;28;20091;-48
2022/10/01 10:12:00;;;;;;;6.93;5.18;;;15.30;99.90;;;;;;5050739;28;20131;-46
2022/10/01 10:14:34;;;;;;;7.57;4.93;;;15.40;99.90;;;;;;5051775;28;20036;-48
2022/10/01 10:17:15;;;;;;;9.45;5.07;;;15.40;99.90;;;;;;5050499;28;20600;-47
2022/10/01 10:19:51;;;;;;;8.70;5.50;;;15.50;99.90;;;;;;5051603;28;20041;-47
2022/10/01 10:22:23;;;;;;;7.88;4.25;;;15.70;99.90;;;;;;5052630;28;20040;-49
2022/10/01 10:24:52;;;;;;;6.85;4.50;;;15.70;99.90;;;;;;5049959;28;20049;-47
2022/10/01 10:27:25;;;;;;;5.88;4.53;;;15.60;99.90;;;;;;5052457;28;20069;-47
2022/10/01 10:30:13;;;;;;;9.45;4.72;;;15.40;99.90;;;;;;5048647;28;20049;-48
2022/10/01 10:32:41;;;;;;;8.20;5.73;;;15.30;99.90;;;;;;5052847;28;20076;-48
2022/10/01 10:35:14;;;;;;;7.90;5.45;;;15.00;99.90;;;;;;5051509;28;20276;-49
2022/10/01 10:37:53;;;;;;;10.60;6.60;;;15.00;99.90;;;;;;5051081;28;20072;-46
2022/10/01 10:40:24;;;;;;;12.38;6.22;;;14.70;99.90;;;;;;5052297;28;20102;-47
2022/10/01 10:42:57;;;;;;;6.78;5.28;;;14.50;99.90;;;;;;5051489;28;20083;-46
2022/10/01 10:45:32;;;;;;;8.18;5.55;;;14.50;99.90;;;;;;5049321;28;20092;-47
2022/10/01 10:48:02;;;;;;;7.95;5.32;;;14.60;99.90;;;;;;5051465;28;20041;-47
2022/10/01 10:50:36;;;;;;;7.53;5.28;;;14.70;99.90;;;;;;5052439;28;20048;-46
2022/10/01 10:53:23;;;;;;;9.80;6.65;;;14.70;99.90;;;;;;5049022;28;20401;-47
2022/10/01 10:55:59;;;;;;;11.80;5.68;;;14.60;99.90;;;;;;5051967;28;20516;-46
2022/10/01 10:58:32;;;;;;;9.00;5.75;;;14.60;99.90;;;;;;5052060;28;20056;-46
2022/10/01 11:01:04;;;;;;;8.05;5.07;;;14.70;99.90;;;;;;5047228;28;20103;-47
2022/10/01 11:03:35;;;;;;;6.13;4.72;;;14.80;99.90;;;;;;5043631;28;20044;-46
2022/10/01 11:06:10;;;;;;;6.50;4.40;;;14.90;99.90;;;;;;5051071;28;20045;-46
2022/10/01 11:08:38;;;;;;;8.40;4.40;;;15.10;99.90;;;;;;5051716;28;20056;-46
2022/10/01 11:11:32;;;;;;;11.35;4.60;;;15.10;99.90;;;;;;5047082;28;20041;-47
2022/10/01 11:14:17;;;;;;;12.52;5.72;;;15.10;99.90;;;;;;5046212;28;20501;-47
2022/10/01 11:17:13;;;;;;;12.57;5.47;;;15.30;99.90;;;;;;5051274;28;20164;-47
2022/10/01 11:19:54;;;;;;;7.47;4.80;;;15.30;99.90;;;;;;5049144;28;20049;-46
2022/10/01 11:22:41;;;;;;;7.32;4.88;;;15.20;99.90;;;;;;5050968;28;20120;-46
2022/10/01 11:25:13;;;;;;;9.32;3.90;;;15.10;99.90;;;;;;5046492;28;20115;-46
2022/10/01 11:27:59;;;;;;;6.28;4.47;;;14.80;99.90;;;;;;5049436;28;20379;-46
2022/10/01 11:30:46;;;;;;;8.38;4.55;;;14.70;99.90;;;;;;5050566;28;20048;-47
2022/10/01 11:33:23;;;;;;;11.05;5.32;;;14.70;99.90;;;;;;5048786;28;20567;-47
2022/10/01 11:36:05;;;;;;;9.48;5.35;;;14.70;99.90;;;;;;5050353;28;20073;-47
2022/10/01 11:38:48;;;;;;;8.15;4.70;;;14.60;99.90;;;;;;5048666;28;20051;-46
2022/10/01 11:41:43;;;;;;;10.98;4.57;;;14.50;99.90;;;;;;5049773;28;20552;-47
2022/10/01 11:44:15;;;;;;;9.05;4.88;;;14.50;99.90;;;;;;5048827;28;20076;-47
2022/10/01 11:47:02;;;;;;;7.20;4.10;;;14.50;99.90;;;;;;5050896;28;20049;-46
2022/10/01 11:50:10;;;;;;;6.50;3.90;;;14.50;99.90;;;;;;5050652;28;20508;-46
2022/10/01 11:52:45;;;;;;;10.25;6.47;;;14.40;99.90;;;;;;4986122;28;20046;-46
2022/10/01 11:58:53;;;;;;;8.15;6.20;;;14.30;99.90;;;;;;4982912;28;20153;-47
2022/10/01 12:01:22;;;;;;;5.60;4.00;;;14.20;99.90;;;;;;5045881;28;20041;-46
2022/10/01 12:03:52;;;;;;;4.38;3.22;;;14.10;99.90;;;;;;5048112;28;20127;-47
2022/10/01 12:06:51;;;;;;;9.18;4.65;;;14.10;99.90;;;;;;5046927;28;20052;-46
2022/10/01 12:09:31;;;;;;;7.70;3.92;;;14.00;99.90;;;;;;5043385;28;20067;-46
2022/10/01 12:12:04;;;;;;;10.27;5.82;;;13.90;99.90;;;;;;5049470;28;20077;-46
2022/10/01 12:14:51;;;;;;;10.10;5.10;;;13.70;99.90;;;;;;5055993;28;20409;-45
2022/10/01 12:17:39;;;;;;;6.70;4.85;;;13.70;99.90;;;;;;5050241;28;20489;-46
2022/10/01 12:20:18;;;;;;;7.70;4.05;;;13.70;99.90;;;;;;5042430;28;20116;-47
2022/10/01 12:22:46;;;;;;;11.73;4.80;;;13.80;99.90;;;;;;5049752;28;20041;-46
2022/10/01 12:25:13;;;;;;;11.60;6.13;;;13.70;99.90;;;;;;5049505;28;20072;-46
2022/10/01 12:27:56;;;;;;;5.15;3.72;;;13.60;99.90;;;;;;5049938;28;20087;-46
2022/10/01 12:30:34;;;;;;;5.07;3.50;;;13.70;99.90;;;;;;5041963;28;20040;-47
2022/10/01 12:33:38;;;;;;;6.50;4.78;;;13.50;99.90;;;;;;5037954;28;20124;-45
2022/10/01 12:36:24;;;;;;;5.93;4.22;;;13.60;99.90;;;;;;5038675;28;20122;-46
2022/10/01 12:39:09;;;;;;;7.85;3.92;;;13.60;99.90;;;;;;5048493;28;20072;-46
2022/10/01 12:42:02;;;;;;;5.75;3.63;;;13.60;99.90;;;;;;5046331;28;20489;-47
2022/10/01 12:44:36;;;;;;;5.72;3.88;;;13.60;99.90;;;;;;5051622;28;20099;-47
2022/10/01 12:47:39;;;;;;;4.75;3.22;;;13.60;99.90;;;;;;5053815;28;20037;-46
2022/10/01 12:50:24;;;;;;;8.88;4.78;;;13.60;99.90;;;;;;5051060;28;20091;-46
2022/10/01 12:53:14;;;;;;;9.60;4.07;;;13.60;99.90;;;;;;5053363;28;20037;-47
2022/10/01 12:55:59;;;;;;;6.30;3.92;;;13.60;99.90;;;;;;5053390;28;20072;-47
2022/10/01 12:58:37;;;;;;;5.95;4.57;;;13.70;99.90;;;;;;5051316;28;20061;-46
2022/10/01 13:01:10;;;;;;;7.63;4.80;;;13.70;99.90;;;;;;5048836;28;20575;-47
2022/10/01 13:04:08;;;;;;;9.15;5.50;;;13.80;99.90;;;;;;5051673;28;20076;-47
2022/10/01 13:06:54;;;;;;;6.68;3.67;;;13.90;99.90;;;;;;5053132;28;20037;-46
2022/10/01 13:09:40;;;;;;;9.60;4.72;;;13.70;99.90;;;;;;5050467;28;20071;-46
2022/10/01 13:12:55;;;;;;;5.53;3.90;;;13.70;99.90;;;;;;5053749;28;20585;-47
2022/10/01 13:15:32;;;;;;;4.88;3.85;;;13.60;99.90;;;;;;5045763;28;20115;-46
2022/10/01 13:18:14;;;;;;;8.80;5.53;;;13.60;99.90;;;;;;5050862;28;20456;-46